Terminal Aerodrome Forecast
Issued by NWS Duluth, MN

Current Version | Previous Version | Text Only | Print | Product List | Glossary On
Versions: 1 2 3 4 5 6 7 8 9 10 11 12 13 14 15 16 17 18 19 20 21
388
FTUS43 KDLH 171140
TAFINL
TAF
KINL 171140Z 1712/1812 05008KT 5SM -RA BR SCT006 BKN025 OVC040
      TEMPO 1712/1715 3SM -RA BR BKN009 OVC025
     FM171500 03007KT 4SM -RA BR OVC012
     FM171900 36008KT P6SM VCSH OVC012
     FM172100 34008KT P6SM BKN025
     FM172300 34007KT P6SM BKN035
     FM180300 VRB03KT P6SM SCT080=

USA.gov is the U.S. government's official web portal to all federal, state and local government web resources and services.